Airfield :
LOGIN :

Register | Disclaimer

   EN    FR    IT 

 










Legend :    VFR   Marginal VFR   IFR   Intensive IFR   Very Intensive IFR
Visi :
Ceiling :
>= 8 km
>= 3000ft
5 to 8 km
1000 to 3000 ft
1500m to 5 km
500 to 1000 ft
800 to 1500m
200 to 500 ft
< 800m
< 200 ft
Symbols :   Thunderstorms  Fog  Heavy snow  Heavy precipitations  Wind > 20 kt
SIGMETs :     Misc.  Thunderstorms  Icing  Turbulence  Mountain Waves  Volcanic Ashes






- Airport Elevation : 665 ft
- IATA code : NOC


EIKN - Connaught / Knock- Ireland West

CURRENT METAR :
  • 221900Z 22010KT 190V250 9999 -SHRA BKN016 SCT020CB BKN038 04/03 Q1012 NOSIG

EXPIRED METARs :
  • 221830Z 25011KT 210V280 9999 -SHRA SCT016 FEW020CB BKN035 BKN090 04/03 Q1012 NOSIG
  • 221800Z 27013G24KT 230V310 9999 FEW015 FEW020CB BKN032 BKN090 04/03 Q1012 NOSIG
  • 221730Z 24013KT 8000 -SHRA FEW015 SCT020CB BKN060 05/03 Q1012 NOSIG

TAF TAF EIKN
Valid from the 22 at 18:00 until the 23 at 18:00 UTC


221700Z 2218/2318 25017G28KT 9999 FEW012 SCT025
BECMG 2219/2221 23010KT -RA SCT007 BKN012
BECMG 2221/2223 4000 -RA SCT004 BKN007
TEMPO 2223/2307 2000 RADZ BKN004
BECMG 2305/2307 30010KT
BECMG 2307/2309 9999 NSW FEW012 BKN020
PROB30
TEMPO 2309/2310 5000 -RA BKN010



MET'MAP, your aeronautical weather chart ! - Copyright ORBIFLY December 2007 - Disclaimer

ORBIFLY MET'MAP TEAM :

Programming & Development : Alexandra Zaïnal
Concept & original design : Baudouin d'Aumeries
Assistance for programming : Marc-Olivier Méhu
Technical & hardware support : Manuel Goepfert

Contact : metmap@orbifly.com




SOURCES & CREDITS :

   NOAA